sensor_id;sensor_type;location;lat;lon;timestamp;pressure;altitude;pressure_sealevel;temperature;humidity
54236;BME280;40151;43.606;1.472;2023-05-21T00:00:44;99094.72;;;20.89;50.44
54236;BME280;40151;43.606;1.472;2023-05-21T00:03:09;99103.41;;;20.91;50.55
54236;BME280;40151;43.606;1.472;2023-05-21T00:05:41;99085.16;;;20.87;50.60
54236;BME280;40151;43.606;1.472;2023-05-21T00:08:07;99096.59;;;20.87;50.49
54236;BME280;40151;43.606;1.472;2023-05-21T00:10:32;99092.97;;;20.88;50.55
54236;BME280;40151;43.606;1.472;2023-05-21T00:12:57;99088.53;;;20.89;50.41
54236;BME280;40151;43.606;1.472;2023-05-21T00:15:23;99097.38;;;20.89;50.43
54236;BME280;40151;43.606;1.472;2023-05-21T00:17:48;99097.38;;;20.89;50.58
54236;BME280;40151;43.606;1.472;2023-05-21T00:20:14;99099.16;;;20.89;50.49
54236;BME280;40151;43.606;1.472;2023-05-21T00:22:40;99093.84;;;20.89;50.55
54236;BME280;40151;43.606;1.472;2023-05-21T00:25:09;99088.53;;;20.89;50.50
54236;BME280;40151;43.606;1.472;2023-05-21T00:27:35;99093.84;;;20.89;50.49
54236;BME280;40151;43.606;1.472;2023-05-21T00:30:01;99091.94;;;20.91;50.36
54236;BME280;40151;43.606;1.472;2023-05-21T00:32:27;99087.50;;;20.91;50.27
54236;BME280;40151;43.606;1.472;2023-05-21T00:34:53;99078.56;;;20.92;50.38
54236;BME280;40151;43.606;1.472;2023-05-21T00:37:18;99082.19;;;20.91;50.44
54236;BME280;40151;43.606;1.472;2023-05-21T00:39:45;99087.50;;;20.91;50.60
54236;BME280;40151;43.606;1.472;2023-05-21T00:42:10;99087.50;;;20.91;50.36
54236;BME280;40151;43.606;1.472;2023-05-21T00:44:36;99085.56;;;20.93;50.23
54236;BME280;40151;43.606;1.472;2023-05-21T00:47:03;99081.22;;;20.92;50.15
54236;BME280;40151;43.606;1.472;2023-05-21T00:49:30;99078.56;;;20.92;50.42
54236;BME280;40151;43.606;1.472;2023-05-21T00:51:56;99073.28;;;20.92;50.07
54236;BME280;40151;43.606;1.472;2023-05-21T00:54:22;99068.94;;;20.91;50.35
54236;BME280;40151;43.606;1.472;2023-05-21T00:56:49;99068.94;;;20.91;50.21
54236;BME280;40151;43.606;1.472;2023-05-21T00:59:15;99068.94;;;20.91;50.29
54236;BME280;40151;43.606;1.472;2023-05-21T01:01:42;99073.50;;;20.89;50.35
54236;BME280;40151;43.606;1.472;2023-05-21T01:04:10;99064.59;;;20.90;50.14
54236;BME280;40151;43.606;1.472;2023-05-21T01:06:35;99068.19;;;20.89;50.36
54236;BME280;40151;43.606;1.472;2023-05-21T01:09:02;99066.47;;;20.88;50.38
54236;BME280;40151;43.606;1.472;2023-05-21T01:11:49;99062.88;;;20.89;50.44
54236;BME280;40151;43.606;1.472;2023-05-21T01:14:16;99062.88;;;20.89;50.21
54236;BME280;40151;43.606;1.472;2023-05-21T01:16:45;99062.88;;;20.89;50.15
54236;BME280;40151;43.606;1.472;2023-05-21T01:19:15;99057.59;;;20.89;50.29
54236;BME280;40151;43.606;1.472;2023-05-21T01:21:44;99056.81;;;20.87;50.11
54236;BME280;40151;43.606;1.472;2023-05-21T01:24:10;99055.84;;;20.88;50.47
54236;BME280;40151;43.606;1.472;2023-05-21T01:26:35;99059.47;;;20.87;50.30
54236;BME280;40151;43.606;1.472;2023-05-21T01:29:06;99054.16;;;20.87;50.25
54236;BME280;40151;43.606;1.472;2023-05-21T01:31:51;99059.56;;;20.86;50.25
54236;BME280;40151;43.606;1.472;2023-05-21T01:34:24;99057.78;;;20.86;50.18
54236;BME280;40151;43.606;1.472;2023-05-21T01:37:20;99061.38;;;20.85;50.22
54236;BME280;40151;43.606;1.472;2023-05-21T01:39:53;99066.69;;;20.85;50.15
54236;BME280;40151;43.606;1.472;2023-05-21T01:42:21;99060.53;;;20.85;50.18
54236;BME280;40151;43.606;1.472;2023-05-21T01:44:50;99065.72;;;20.86;50.18
54236;BME280;40151;43.606;1.472;2023-05-21T01:47:16;99058.72;;;20.85;50.29
54236;BME280;40151;43.606;1.472;2023-05-21T01:49:42;99061.38;;;20.85;50.25
54236;BME280;40151;43.606;1.472;2023-05-21T01:52:09;99067.63;;;20.84;50.40
54236;BME280;40151;43.606;1.472;2023-05-21T01:54:34;99059.66;;;20.84;50.16
54236;BME280;40151;43.606;1.472;2023-05-21T01:56:59;99054.34;;;20.84;50.25
54236;BME280;40151;43.606;1.472;2023-05-21T01:59:25;99064.97;;;20.84;50.26
54236;BME280;40151;43.606;1.472;2023-05-21T02:01:51;99061.38;;;20.85;50.18
54236;BME280;40151;43.606;1.472;2023-05-21T02:04:17;99056.25;;;20.82;50.36
54236;BME280;40151;43.606;1.472;2023-05-21T02:06:42;99061.53;;;20.82;50.29
54236;BME280;40151;43.606;1.472;2023-05-21T02:09:08;99060.63;;;20.83;50.01
54236;BME280;40151;43.606;1.472;2023-05-21T02:11:33;99062.41;;;20.83;50.33
54236;BME280;40151;43.606;1.472;2023-05-21T02:13:59;99058.06;;;20.82;50.18
54236;BME280;40151;43.606;1.472;2023-05-21T02:16:24;99051.88;;;20.81;50.15
54236;BME280;40151;43.606;1.472;2023-05-21T02:18:50;99053.72;;;20.81;50.23
54236;BME280;40151;43.606;1.472;2023-05-21T02:21:17;99058.16;;;20.80;50.10
54236;BME280;40151;43.606;1.472;2023-05-21T02:23:44;99058.16;;;20.80;50.43
54236;BME280;40151;43.606;1.472;2023-05-21T02:26:10;99058.16;;;20.80;50.25
54236;BME280;40151;43.606;1.472;2023-05-21T02:28:35;99056.47;;;20.79;50.06
54236;BME280;40151;43.606;1.472;2023-05-21T02:31:01;99061.75;;;20.79;50.29
54236;BME280;40151;43.606;1.472;2023-05-21T02:33:26;99056.56;;;20.77;50.27
54236;BME280;40151;43.606;1.472;2023-05-21T02:35:52;99062.72;;;20.78;50.11
54236;BME280;40151;43.606;1.472;2023-05-21T02:38:17;99061.75;;;20.79;50.36
54236;BME280;40151;43.606;1.472;2023-05-21T02:40:44;99058.25;;;20.78;50.33
54236;BME280;40151;43.606;1.472;2023-05-21T02:43:10;99066.19;;;20.78;50.18
54236;BME280;40151;43.606;1.472;2023-05-21T02:45:35;99067.06;;;20.79;50.24
54236;BME280;40151;43.606;1.472;2023-05-21T02:48:00;99065.38;;;20.78;50.15
54236;BME280;40151;43.606;1.472;2023-05-21T02:50:26;99068.84;;;20.78;50.29
54236;BME280;40151;43.606;1.472;2023-05-21T02:52:51;99068.03;;;20.78;50.23
54236;BME280;40151;43.606;1.472;2023-05-21T02:55:17;99062.81;;;20.76;50.04
54236;BME280;40151;43.606;1.472;2023-05-21T02:57:42;99069.81;;;20.77;50.09
54236;BME280;40151;43.606;1.472;2023-05-21T03:00:08;99062.81;;;20.76;50.25
54236;BME280;40151;43.606;1.472;2023-05-21T03:02:34;99062.91;;;20.75;50.24
54236;BME280;40151;43.606;1.472;2023-05-21T03:05:00;99069.81;;;20.77;50.24
54236;BME280;40151;43.606;1.472;2023-05-21T03:07:25;99054.97;;;20.75;50.03
54236;BME280;40151;43.606;1.472;2023-05-21T03:09:51;99061.22;;;20.74;50.29
54236;BME280;40151;43.606;1.472;2023-05-21T03:12:16;99067.47;;;20.73;50.36
54236;BME280;40151;43.606;1.472;2023-05-21T03:14:42;99069.16;;;20.74;50.02
54236;BME280;40151;43.606;1.472;2023-05-21T03:17:08;99066.63;;;20.72;50.12
54236;BME280;40151;43.606;1.472;2023-05-21T03:19:41;99064.81;;;20.73;50.08
54236;BME280;40151;43.606;1.472;2023-05-21T03:22:06;99065.78;;;20.72;49.97
54236;BME280;40151;43.606;1.472;2023-05-21T03:24:31;99073.59;;;20.73;50.35
54236;BME280;40151;43.606;1.472;2023-05-21T03:27:00;99070.22;;;20.71;50.18
54236;BME280;40151;43.606;1.472;2023-05-21T03:29:26;99069.34;;;20.71;50.22
54236;BME280;40151;43.606;1.472;2023-05-21T03:31:52;99067.66;;;20.70;50.25
54236;BME280;40151;43.606;1.472;2023-05-21T03:34:20;99072.97;;;20.70;50.08
54236;BME280;40151;43.606;1.472;2023-05-21T03:36:46;99073.81;;;20.70;50.29
54236;BME280;40151;43.606;1.472;2023-05-21T03:39:12;99078.28;;;20.70;50.17
54236;BME280;40151;43.606;1.472;2023-05-21T03:41:38;99074.78;;;20.69;50.25
54236;BME280;40151;43.606;1.472;2023-05-21T03:44:03;99081.97;;;20.67;50.11
54236;BME280;40151;43.606;1.472;2023-05-21T03:46:29;99081.00;;;20.68;50.32
54236;BME280;40151;43.606;1.472;2023-05-21T03:48:54;99091.63;;;20.68;50.11
54236;BME280;40151;43.606;1.472;2023-05-21T03:51:20;99084.53;;;20.69;50.06
54236;BME280;40151;43.606;1.472;2023-05-21T03:53:45;99081.13;;;20.66;50.11
54236;BME280;40151;43.606;1.472;2023-05-21T03:56:11;99085.47;;;20.68;50.35
54236;BME280;40151;43.606;1.472;2023-05-21T03:58:36;99085.47;;;20.68;50.24
54236;BME280;40151;43.606;1.472;2023-05-21T04:01:02;99089.91;;;20.67;50.22
54236;BME280;40151;43.606;1.472;2023-05-21T04:03:29;99086.53;;;20.65;49.97
54236;BME280;40151;43.606;1.472;2023-05-21T04:05:54;99091.84;;;20.65;50.17
54236;BME280;40151;43.606;1.472;2023-05-21T04:08:20;99083.97;;;20.63;50.11
54236;BME280;40151;43.606;1.472;2023-05-21T04:10:46;99090.97;;;20.64;50.20
54236;BME280;40151;43.606;1.472;2023-05-21T04:13:11;99098.00;;;20.65;50.06
54236;BME280;40151;43.606;1.472;2023-05-21T04:15:36;99091.94;;;20.63;49.98
54236;BME280;40151;43.606;1.472;2023-05-21T04:18:02;99089.28;;;20.63;50.24
54236;BME280;40151;43.606;1.472;2023-05-21T04:20:28;99090.97;;;20.64;50.24
54236;BME280;40151;43.606;1.472;2023-05-21T04:22:54;99092.88;;;20.62;50.14
54236;BME280;40151;43.606;1.472;2023-05-21T04:25:19;99091.94;;;20.63;49.93
54236;BME280;40151;43.606;1.472;2023-05-21T04:27:47;99098.19;;;20.62;50.19
54236;BME280;40151;43.606;1.472;2023-05-21T04:30:14;99094.56;;;20.63;50.29
54236;BME280;40151;43.606;1.472;2023-05-21T04:32:39;99109.66;;;20.63;50.06
54236;BME280;40151;43.606;1.472;2023-05-21T04:35:05;99099.88;;;20.63;50.34
54236;BME280;40151;43.606;1.472;2023-05-21T04:37:30;99101.78;;;20.61;50.03
54236;BME280;40151;43.606;1.472;2023-05-21T04:39:59;99105.28;;;20.62;50.12
54236;BME280;40151;43.606;1.472;2023-05-21T04:42:27;99106.22;;;20.61;50.29
54236;BME280;40151;43.606;1.472;2023-05-21T04:44:54;99100.09;;;20.60;50.16
54236;BME280;40151;43.606;1.472;2023-05-21T04:47:20;99109.75;;;20.61;50.06
54236;BME280;40151;43.606;1.472;2023-05-21T04:49:45;99107.09;;;20.61;50.20
54236;BME280;40151;43.606;1.472;2023-05-21T04:52:11;99105.41;;;20.60;50.15
54236;BME280;40151;43.606;1.472;2023-05-21T04:54:37;99114.09;;;20.62;50.07
54236;BME280;40151;43.606;1.472;2023-05-21T04:57:06;99113.34;;;20.60;50.01
54236;BME280;40151;43.606;1.472;2023-05-21T04:59:31;99115.13;;;20.60;50.08
54236;BME280;40151;43.606;1.472;2023-05-21T05:01:57;99117.88;;;20.58;50.04
54236;BME280;40151;43.606;1.472;2023-05-21T05:04:22;99119.56;;;20.59;50.00
54236;BME280;40151;43.606;1.472;2023-05-21T05:06:48;99119.56;;;20.59;50.01
54236;BME280;40151;43.606;1.472;2023-05-21T05:09:14;99114.41;;;20.58;50.05
54236;BME280;40151;43.606;1.472;2023-05-21T05:11:40;99113.44;;;20.59;50.27
54236;BME280;40151;43.606;1.472;2023-05-21T05:14:05;99112.59;;;20.58;50.01
54236;BME280;40151;43.606;1.472;2023-05-21T05:16:31;99117.06;;;20.58;50.19
54236;BME280;40151;43.606;1.472;2023-05-21T05:18:56;99123.19;;;20.58;50.04
54236;BME280;40151;43.606;1.472;2023-05-21T05:21:22;99116.19;;;20.57;50.00
54236;BME280;40151;43.606;1.472;2023-05-21T05:23:48;99117.88;;;20.58;50.21
54236;BME280;40151;43.606;1.472;2023-05-21T05:26:14;99116.19;;;20.57;50.09
54236;BME280;40151;43.606;1.472;2023-05-21T05:28:39;99117.16;;;20.56;49.92
54236;BME280;40151;43.606;1.472;2023-05-21T05:31:05;99118.94;;;20.56;50.01
54236;BME280;40151;43.606;1.472;2023-05-21T05:33:31;99125.09;;;20.56;50.05
54236;BME280;40151;43.606;1.472;2023-05-21T05:35:56;99123.41;;;20.55;50.16
54236;BME280;40151;43.606;1.472;2023-05-21T05:38:21;99120.84;;;20.53;50.27
54236;BME280;40151;43.606;1.472;2023-05-21T05:40:47;99120.75;;;20.55;50.23
54236;BME280;40151;43.606;1.472;2023-05-21T05:43:12;99120.75;;;20.55;50.01
54236;BME280;40151;43.606;1.472;2023-05-21T05:45:38;99122.53;;;20.55;50.12
54236;BME280;40151;43.606;1.472;2023-05-21T05:48:03;99121.69;;;20.54;50.25
54236;BME280;40151;43.606;1.472;2023-05-21T05:50:29;99123.41;;;20.55;49.91
54236;BME280;40151;43.606;1.472;2023-05-21T05:52:54;99129.66;;;20.54;49.97
54236;BME280;40151;43.606;1.472;2023-05-21T05:55:20;99120.84;;;20.53;50.11
54236;BME280;40151;43.606;1.472;2023-05-21T05:57:46;99127.00;;;20.54;49.95
54236;BME280;40151;43.606;1.472;2023-05-21T06:00:13;99129.66;;;20.54;50.07
54236;BME280;40151;43.606;1.472;2023-05-21T06:02:39;99124.34;;;20.54;49.99
54236;BME280;40151;43.606;1.472;2023-05-21T06:05:04;99125.28;;;20.53;49.95
54236;BME280;40151;43.606;1.472;2023-05-21T06:07:31;99124.44;;;20.52;49.94
54236;BME280;40151;43.606;1.472;2023-05-21T06:09:57;99121.88;;;20.51;49.97
54236;BME280;40151;43.606;1.472;2023-05-21T06:12:22;99129.84;;;20.51;50.01
54236;BME280;40151;43.606;1.472;2023-05-21T06:14:47;99133.34;;;20.51;50.15
54236;BME280;40151;43.606;1.472;2023-05-21T06:17:13;99131.63;;;20.50;50.13
54236;BME280;40151;43.606;1.472;2023-05-21T06:19:39;99133.34;;;20.51;49.99
54236;BME280;40151;43.606;1.472;2023-05-21T06:22:04;99130.78;;;20.50;50.14
54236;BME280;40151;43.606;1.472;2023-05-21T06:24:30;99125.50;;;20.50;49.97
54236;BME280;40151;43.606;1.472;2023-05-21T06:26:55;99127.28;;;20.49;50.20
54236;BME280;40151;43.606;1.472;2023-05-21T06:29:20;99128.22;;;20.48;50.10
54236;BME280;40151;43.606;1.472;2023-05-21T06:31:47;99122.94;;;20.48;50.09
54236;BME280;40151;43.606;1.472;2023-05-21T06:34:13;99125.66;;;20.47;50.19
54236;BME280;40151;43.606;1.472;2023-05-21T06:36:38;99123.97;;;20.46;50.32
54236;BME280;40151;43.606;1.472;2023-05-21T06:39:04;99123.03;;;20.47;50.12
54236;BME280;40151;43.606;1.472;2023-05-21T06:41:29;99129.28;;;20.46;50.20
54236;BME280;40151;43.606;1.472;2023-05-21T06:43:54;99126.63;;;20.46;50.14
54236;BME280;40151;43.606;1.472;2023-05-21T06:46:20;99127.59;;;20.45;50.14
54236;BME280;40151;43.606;1.472;2023-05-21T06:48:46;99134.56;;;20.46;50.33
54236;BME280;40151;43.606;1.472;2023-05-21T06:51:11;99131.19;;;20.44;50.22
54236;BME280;40151;43.606;1.472;2023-05-21T06:53:37;99125.88;;;20.44;50.18
54236;BME280;40151;43.606;1.472;2023-05-21T06:56:02;99127.59;;;20.45;50.33
54236;BME280;40151;43.606;1.472;2023-05-21T06:58:28;99134.56;;;20.46;50.33
54236;BME280;40151;43.606;1.472;2023-05-21T07:00:58;99134.56;;;20.46;50.30
54236;BME280;40151;43.606;1.472;2023-05-21T07:03:23;99147.09;;;20.44;50.34
54236;BME280;40151;43.606;1.472;2023-05-21T07:05:49;99148.03;;;20.43;50.27
54236;BME280;40151;43.606;1.472;2023-05-21T07:08:14;99146.13;;;20.45;50.17
54236;BME280;40151;43.606;1.472;2023-05-21T07:10:40;99149.66;;;20.45;50.45
54236;BME280;40151;43.606;1.472;2023-05-21T07:13:06;99143.56;;;20.43;50.52
54236;BME280;40151;43.606;1.472;2023-05-21T07:15:31;99141.78;;;20.44;50.48
54236;BME280;40151;43.606;1.472;2023-05-21T07:17:57;99139.97;;;20.44;50.46
54236;BME280;40151;43.606;1.472;2023-05-21T07:20:22;99147.09;;;20.44;50.52
54236;BME280;40151;43.606;1.472;2023-05-21T07:22:48;99141.78;;;20.44;50.33
54236;BME280;40151;43.606;1.472;2023-05-21T07:25:13;99148.78;;;20.45;50.32
54236;BME280;40151;43.606;1.472;2023-05-21T07:27:40;99146.13;;;20.45;50.52
54236;BME280;40151;43.606;1.472;2023-05-21T07:30:06;99152.38;;;20.44;50.39
54236;BME280;40151;43.606;1.472;2023-05-21T07:32:31;99141.69;;;20.45;50.44
54236;BME280;40151;43.606;1.472;2023-05-21T07:34:58;99149.75;;;20.44;50.33
54236;BME280;40151;43.606;1.472;2023-05-21T07:37:25;99152.38;;;20.44;50.44
54236;BME280;40151;43.606;1.472;2023-05-21T07:39:52;99155.03;;;20.44;50.44
54236;BME280;40151;43.606;1.472;2023-05-21T07:42:18;99154.09;;;20.45;50.37
54236;BME280;40151;43.606;1.472;2023-05-21T07:44:43;99154.09;;;20.45;50.40
54236;BME280;40151;43.606;1.472;2023-05-21T07:47:08;99152.38;;;20.44;50.53
54236;BME280;40151;43.606;1.472;2023-05-21T07:49:34;99151.53;;;20.43;50.32
54236;BME280;40151;43.606;1.472;2023-05-21T07:51:59;99155.03;;;20.44;50.41
54236;BME280;40151;43.606;1.472;2023-05-21T07:54:25;99153.34;;;20.43;50.41
54236;BME280;40151;43.606;1.472;2023-05-21T07:56:50;99159.47;;;20.43;50.51
54236;BME280;40151;43.606;1.472;2023-05-21T07:59:16;99157.69;;;20.44;50.38
54236;BME280;40151;43.606;1.472;2023-05-21T08:01:41;99152.38;;;20.44;50.38
54236;BME280;40151;43.606;1.472;2023-05-21T08:04:08;99163.81;;;20.44;50.50
54236;BME280;40151;43.606;1.472;2023-05-21T08:06:33;99158.44;;;20.46;50.44
54236;BME280;40151;43.606;1.472;2023-05-21T08:09:02;99165.56;;;20.45;50.36
54236;BME280;40151;43.606;1.472;2023-05-21T08:11:28;99157.69;;;20.44;50.40
54236;BME280;40151;43.606;1.472;2023-05-21T08:13:54;99163.00;;;20.44;50.45
54236;BME280;40151;43.606;1.472;2023-05-21T08:16:19;99156.00;;;20.43;50.49
54236;BME280;40151;43.606;1.472;2023-05-21T08:18:45;99152.38;;;20.44;50.34
54236;BME280;40151;43.606;1.472;2023-05-21T08:21:10;99154.09;;;20.45;50.58
54236;BME280;40151;43.606;1.472;2023-05-21T08:23:36;99158.53;;;20.44;50.34
54236;BME280;40151;43.606;1.472;2023-05-21T08:26:02;99156.00;;;20.43;50.60
54236;BME280;40151;43.606;1.472;2023-05-21T08:28:28;99157.69;;;20.44;50.44
54236;BME280;40151;43.606;1.472;2023-05-21T08:30:54;99154.09;;;20.45;50.78
54236;BME280;40151;43.606;1.472;2023-05-21T08:33:19;99158.53;;;20.44;50.75
54236;BME280;40151;43.606;1.472;2023-05-21T08:35:45;99157.69;;;20.44;50.78
54236;BME280;40151;43.606;1.472;2023-05-21T08:38:10;99163.00;;;20.44;50.74
54236;BME280;40151;43.606;1.472;2023-05-21T08:40:35;99164.78;;;20.43;50.80
54236;BME280;40151;43.606;1.472;2023-05-21T08:43:01;99156.81;;;20.43;50.67
54236;BME280;40151;43.606;1.472;2023-05-21T08:45:33;99163.00;;;20.44;50.76
54236;BME280;40151;43.606;1.472;2023-05-21T08:48:01;99159.38;;;20.45;50.78
54236;BME280;40151;43.606;1.472;2023-05-21T08:50:28;99160.34;;;20.44;50.78
54236;BME280;40151;43.606;1.472;2023-05-21T08:52:53;99164.69;;;20.45;50.66
54236;BME280;40151;43.606;1.472;2023-05-21T08:55:23;99166.38;;;20.46;50.64
54236;BME280;40151;43.606;1.472;2023-05-21T08:57:48;99154.94;;;20.45;50.87
54236;BME280;40151;43.606;1.472;2023-05-21T09:00:14;99162.91;;;20.45;50.86
54236;BME280;40151;43.606;1.472;2023-05-21T09:02:40;99160.25;;;20.45;50.60
54236;BME280;40151;43.606;1.472;2023-05-21T09:05:08;99156.66;;;20.46;50.79
54236;BME280;40151;43.606;1.472;2023-05-21T09:07:38;99160.25;;;20.45;50.86
54236;BME280;40151;43.606;1.472;2023-05-21T09:10:11;99161.09;;;20.46;50.66
54236;BME280;40151;43.606;1.472;2023-05-21T09:12:37;99162.78;;;20.47;50.86
54236;BME280;40151;43.606;1.472;2023-05-21T09:15:03;99161.09;;;20.46;50.73
54236;BME280;40151;43.606;1.472;2023-05-21T09:17:29;99168.06;;;20.47;51.00
54236;BME280;40151;43.606;1.472;2023-05-21T09:20:04;99170.84;;;20.45;50.79
54236;BME280;40151;43.606;1.472;2023-05-21T09:22:35;99170.94;;;20.44;50.69
54236;BME280;40151;43.606;1.472;2023-05-21T09:25:03;99168.19;;;20.45;50.75
54236;BME280;40151;43.606;1.472;2023-05-21T09:27:28;99169.81;;;20.48;50.68
54236;BME280;40151;43.606;1.472;2023-05-21T09:29:54;99173.38;;;20.47;50.69
54236;BME280;40151;43.606;1.472;2023-05-21T09:32:19;99165.44;;;20.47;50.67
54236;BME280;40151;43.606;1.472;2023-05-21T09:34:46;99171.69;;;20.46;50.73
54236;BME280;40151;43.606;1.472;2023-05-21T09:37:12;99173.38;;;20.47;50.89
54236;BME280;40151;43.606;1.472;2023-05-21T09:39:39;99172.53;;;20.46;50.79
54236;BME280;40151;43.606;1.472;2023-05-21T09:42:05;99174.16;;;20.49;50.82
54236;BME280;40151;43.606;1.472;2023-05-21T09:44:31;99173.38;;;20.47;50.79
54236;BME280;40151;43.606;1.472;2023-05-21T09:46:57;99180.41;;;20.48;50.98
54236;BME280;40151;43.606;1.472;2023-05-21T09:49:24;99179.44;;;20.49;50.76
54236;BME280;40151;43.606;1.472;2023-05-21T09:51:57;99185.59;;;20.49;50.95
54236;BME280;40151;43.606;1.472;2023-05-21T09:54:23;99184.75;;;20.49;50.74
54236;BME280;40151;43.606;1.472;2023-05-21T09:56:50;99187.41;;;20.49;50.77
54236;BME280;40151;43.606;1.472;2023-05-21T09:59:19;99190.06;;;20.49;50.83
54236;BME280;40151;43.606;1.472;2023-05-21T10:01:45;99193.66;;;20.48;50.84
54236;BME280;40151;43.606;1.472;2023-05-21T10:04:11;99192.72;;;20.49;50.95
54236;BME280;40151;43.606;1.472;2023-05-21T10:06:41;99191.84;;;20.48;51.04
54236;BME280;40151;43.606;1.472;2023-05-21T10:09:09;99193.53;;;20.49;50.98
54236;BME280;40151;43.606;1.472;2023-05-21T10:11:34;99200.66;;;20.49;50.83
54236;BME280;40151;43.606;1.472;2023-05-21T10:14:15;99192.59;;;20.50;50.77
54236;BME280;40151;43.606;1.472;2023-05-21T10:16:41;99199.72;;;20.50;50.71
54236;BME280;40151;43.606;1.472;2023-05-21T10:19:07;99198.00;;;20.49;50.65
54236;BME280;40151;43.606;1.472;2023-05-21T10:21:36;99205.00;;;20.50;50.80
54236;BME280;40151;43.606;1.472;2023-05-21T10:24:04;99194.41;;;20.50;50.77
54236;BME280;40151;43.606;1.472;2023-05-21T10:26:31;99199.72;;;20.50;51.29
54236;BME280;40151;43.606;1.472;2023-05-21T10:28:57;99200.53;;;20.50;50.83
54236;BME280;40151;43.606;1.472;2023-05-21T10:31:25;99199.72;;;20.50;50.78
54236;BME280;40151;43.606;1.472;2023-05-21T10:33:52;99196.09;;;20.51;51.00
54236;BME280;40151;43.606;1.472;2023-05-21T10:36:18;99198.75;;;20.51;50.66
54236;BME280;40151;43.606;1.472;2023-05-21T10:38:45;99198.75;;;20.51;50.69
54236;BME280;40151;43.606;1.472;2023-05-21T10:41:13;99199.63;;;20.51;50.76
54236;BME280;40151;43.606;1.472;2023-05-21T10:43:55;99200.44;;;20.52;50.68
54236;BME280;40151;43.606;1.472;2023-05-21T10:59:40;99189.84;;;20.52;51.00
54236;BME280;40151;43.606;1.472;2023-05-21T11:02:06;99194.00;;;20.56;50.91
54236;BME280;40151;43.606;1.472;2023-05-21T11:04:33;99189.75;;;20.53;50.84
54236;BME280;40151;43.606;1.472;2023-05-21T11:07:04;99193.34;;;20.52;50.88
54236;BME280;40151;43.606;1.472;2023-05-21T11:09:29;99191.44;;;20.55;50.84
54236;BME280;40151;43.606;1.472;2023-05-21T11:11:58;99200.34;;;20.53;51.04
54236;BME280;40151;43.606;1.472;2023-05-21T11:14:37;99201.00;;;20.57;51.03
54236;BME280;40151;43.606;1.472;2023-05-21T11:19:37;99194.00;;;20.56;51.05
54236;BME280;40151;43.606;1.472;2023-05-21T11:22:26;99193.06;;;20.57;50.82
54236;BME280;40151;43.606;1.472;2023-05-21T11:24:52;99188.63;;;20.58;50.77
54236;BME280;40151;43.606;1.472;2023-05-21T11:29:58;99198.28;;;20.59;50.69
54236;BME280;40151;43.606;1.472;2023-05-21T11:32:23;99195.72;;;20.57;50.83
54236;BME280;40151;43.606;1.472;2023-05-21T11:34:49;99193.81;;;20.59;50.74
54236;BME280;40151;43.606;1.472;2023-05-21T11:39:52;99183.19;;;20.59;50.98
54236;BME280;40151;43.606;1.472;2023-05-21T11:42:33;99192.88;;;20.60;50.91
54236;BME280;40151;43.606;1.472;2023-05-21T11:45:03;99191.94;;;20.61;50.81
54236;BME280;40151;43.606;1.472;2023-05-21T11:47:29;99197.22;;;20.61;51.06
54236;BME280;40151;43.606;1.472;2023-05-21T11:49:58;99187.56;;;20.60;50.91
54236;BME280;40151;43.606;1.472;2023-05-21T11:52:23;99191.06;;;20.61;51.03
54236;BME280;40151;43.606;1.472;2023-05-21T11:54:52;99191.94;;;20.61;50.90
54236;BME280;40151;43.606;1.472;2023-05-21T11:57:24;99194.66;;;20.60;51.00
54236;BME280;40151;43.606;1.472;2023-05-21T11:59:51;99195.53;;;20.60;51.04
54236;BME280;40151;43.606;1.472;2023-05-21T12:02:20;99190.22;;;20.60;51.14
54236;BME280;40151;43.606;1.472;2023-05-21T12:04:47;99184.94;;;20.60;51.03
54236;BME280;40151;43.606;1.472;2023-05-21T12:07:15;99183.00;;;20.62;50.96
54236;BME280;40151;43.606;1.472;2023-05-21T12:09:49;99186.63;;;20.61;51.06
54236;BME280;40151;43.606;1.472;2023-05-21T12:12:17;99185.66;;;20.62;50.95
54236;BME280;40151;43.606;1.472;2023-05-21T12:14:43;99182.16;;;20.62;50.84
54236;BME280;40151;43.606;1.472;2023-05-21T12:17:10;99181.31;;;20.61;51.00
54236;BME280;40151;43.606;1.472;2023-05-21T12:19:37;99183.88;;;20.63;51.01
54236;BME280;40151;43.606;1.472;2023-05-21T12:22:03;99182.06;;;20.63;50.95
54236;BME280;40151;43.606;1.472;2023-05-21T12:24:30;99177.72;;;20.62;50.92
54236;BME280;40151;43.606;1.472;2023-05-21T12:27:00;99184.72;;;20.63;50.98
54236;BME280;40151;43.606;1.472;2023-05-21T12:29:30;99176.75;;;20.63;51.12
54236;BME280;40151;43.606;1.472;2023-05-21T12:31:59;99181.09;;;20.64;51.08
54236;BME280;40151;43.606;1.472;2023-05-21T12:34:44;99170.50;;;20.64;51.08
54236;BME280;40151;43.606;1.472;2023-05-21T12:37:21;99180.28;;;20.64;51.16
54236;BME280;40151;43.606;1.472;2023-05-21T12:39:48;99171.47;;;20.63;50.95
54236;BME280;40151;43.606;1.472;2023-05-21T12:42:14;99172.22;;;20.65;51.03
54236;BME280;40151;43.606;1.472;2023-05-21T12:44:44;99167.84;;;20.64;50.91
54236;BME280;40151;43.606;1.472;2023-05-21T12:47:10;99167.84;;;20.64;51.25
54236;BME280;40151;43.606;1.472;2023-05-21T12:49:39;99167.03;;;20.64;51.06
54236;BME280;40151;43.606;1.472;2023-05-21T12:52:10;99166.94;;;20.65;50.97
54236;BME280;40151;43.606;1.472;2023-05-21T12:54:37;99166.94;;;20.65;51.14
54236;BME280;40151;43.606;1.472;2023-05-21T12:57:13;99166.94;;;20.65;51.33
54236;BME280;40151;43.606;1.472;2023-05-21T12:59:59;99162.47;;;20.66;51.04
54236;BME280;40151;43.606;1.472;2023-05-21T13:02:26;99163.31;;;20.66;51.23
54236;BME280;40151;43.606;1.472;2023-05-21T13:05:03;99158.03;;;20.66;51.06
54236;BME280;40151;43.606;1.472;2023-05-21T13:07:30;99163.31;;;20.66;51.23
54236;BME280;40151;43.606;1.472;2023-05-21T13:09:56;99159.72;;;20.68;51.18
54236;BME280;40151;43.606;1.472;2023-05-21T13:12:23;99157.16;;;20.66;51.20
54236;BME280;40151;43.606;1.472;2023-05-21T13:14:51;99162.38;;;20.68;51.19
54236;BME280;40151;43.606;1.472;2023-05-21T13:17:17;99162.38;;;20.68;51.30
54236;BME280;40151;43.606;1.472;2023-05-21T13:20:04;99153.53;;;20.67;51.14